sensor_id;sensor_type;location;lat;lon;timestamp;P1;durP1;ratioP1;P2;durP2;ratioP2
17997;SDS011;9124;48.144;17.098;2023-11-19T00:00:58;5.10;;;4.70;;
17997;SDS011;9124;48.144;17.098;2023-11-19T00:05:26;5.60;;;5.13;;
17997;SDS011;9124;48.144;17.098;2023-11-19T00:09:53;4.95;;;4.55;;
17997;SDS011;9124;48.144;17.098;2023-11-19T00:14:21;6.30;;;4.82;;
17997;SDS011;9124;48.144;17.098;2023-11-19T00:18:47;5.20;;;4.80;;
17997;SDS011;9124;48.144;17.098;2023-11-19T00:23:13;6.18;;;5.45;;
17997;SDS011;9124;48.144;17.098;2023-11-19T00:27:40;6.13;;;5.63;;
17997;SDS011;9124;48.144;17.098;2023-11-19T00:32:06;6.13;;;5.63;;
17997;SDS011;9124;48.144;17.098;2023-11-19T00:36:34;4.97;;;4.57;;
17997;SDS011;9124;48.144;17.098;2023-11-19T00:41:00;8.05;;;5.32;;
17997;SDS011;9124;48.144;17.098;2023-11-19T00:45:28;6.03;;;5.53;;
17997;SDS011;9124;48.144;17.098;2023-11-19T00:49:55;5.45;;;4.95;;
17997;SDS011;9124;48.144;17.098;2023-11-19T00:54:21;6.22;;;5.72;;
17997;SDS011;9124;48.144;17.098;2023-11-19T00:58:51;7.18;;;5.82;;
17997;SDS011;9124;48.144;17.098;2023-11-19T01:03:18;6.63;;;6.03;;
17997;SDS011;9124;48.144;17.098;2023-11-19T01:07:44;8.02;;;7.15;;
17997;SDS011;9124;48.144;17.098;2023-11-19T01:12:11;8.32;;;7.47;;
17997;SDS011;9124;48.144;17.098;2023-11-19T01:16:37;9.60;;;8.55;;
17997;SDS011;9124;48.144;17.098;2023-11-19T01:21:05;9.60;;;7.95;;
17997;SDS011;9124;48.144;17.098;2023-11-19T01:25:31;9.57;;;8.70;;
17997;SDS011;9124;48.144;17.098;2023-11-19T01:29:57;9.80;;;8.13;;
17997;SDS011;9124;48.144;17.098;2023-11-19T01:34:24;9.90;;;8.73;;
17997;SDS011;9124;48.144;17.098;2023-11-19T01:38:51;9.57;;;8.68;;
17997;SDS011;9124;48.144;17.098;2023-11-19T01:43:33;10.65;;;8.73;;
17997;SDS011;9124;48.144;17.098;2023-11-19T01:48:04;9.65;;;8.75;;
17997;SDS011;9124;48.144;17.098;2023-11-19T01:52:31;11.60;;;9.30;;
17997;SDS011;9124;48.144;17.098;2023-11-19T01:57:03;10.88;;;9.65;;
17997;SDS011;9124;48.144;17.098;2023-11-19T02:01:29;13.02;;;9.90;;
17997;SDS011;9124;48.144;17.098;2023-11-19T02:05:59;8.95;;;8.10;;
17997;SDS011;9124;48.144;17.098;2023-11-19T02:10:26;9.35;;;8.00;;
17997;SDS011;9124;48.144;17.098;2023-11-19T02:14:52;7.47;;;6.78;;
17997;SDS011;9124;48.144;17.098;2023-11-19T02:19:21;7.88;;;7.13;;
17997;SDS011;9124;48.144;17.098;2023-11-19T02:23:48;7.32;;;6.63;;
17997;SDS011;9124;48.144;17.098;2023-11-19T02:28:14;7.38;;;6.68;;
17997;SDS011;9124;48.144;17.098;2023-11-19T02:32:42;6.88;;;6.22;;
17997;SDS011;9124;48.144;17.098;2023-11-19T02:37:08;7.50;;;6.75;;
17997;SDS011;9124;48.144;17.098;2023-11-19T02:41:36;7.32;;;6.68;;
17997;SDS011;9124;48.144;17.098;2023-11-19T02:46:04;7.07;;;6.43;;
17997;SDS011;9124;48.144;17.098;2023-11-19T02:50:34;7.45;;;6.85;;
17997;SDS011;9124;48.144;17.098;2023-11-19T02:55:00;7.95;;;7.00;;
17997;SDS011;9124;48.144;17.098;2023-11-19T02:59:27;7.90;;;7.18;;
17997;SDS011;9124;48.144;17.098;2023-11-19T03:04:04;6.55;;;5.95;;
17997;SDS011;9124;48.144;17.098;2023-11-19T03:08:31;7.50;;;6.90;;
17997;SDS011;9124;48.144;17.098;2023-11-19T03:12:58;14.07;;;6.25;;
17997;SDS011;9124;48.144;17.098;2023-11-19T03:17:28;6.75;;;6.15;;
17997;SDS011;9124;48.144;17.098;2023-11-19T03:21:54;6.85;;;6.15;;
17997;SDS011;9124;48.144;17.098;2023-11-19T03:26:21;7.10;;;6.50;;
17997;SDS011;9124;48.144;17.098;2023-11-19T03:30:47;6.60;;;6.00;;
17997;SDS011;9124;48.144;17.098;2023-11-19T03:35:15;6.78;;;6.18;;
17997;SDS011;9124;48.144;17.098;2023-11-19T03:39:41;7.15;;;6.53;;
17997;SDS011;9124;48.144;17.098;2023-11-19T03:44:08;6.97;;;6.30;;
17997;SDS011;9124;48.144;17.098;2023-11-19T03:48:34;6.10;;;5.60;;
17997;SDS011;9124;48.144;17.098;2023-11-19T03:53:01;7.20;;;6.60;;
17997;SDS011;9124;48.144;17.098;2023-11-19T03:57:28;6.95;;;6.30;;
17997;SDS011;9124;48.144;17.098;2023-11-19T04:01:55;6.82;;;6.22;;
17997;SDS011;9124;48.144;17.098;2023-11-19T04:06:22;6.88;;;6.22;;
17997;SDS011;9124;48.144;17.098;2023-11-19T04:10:48;9.18;;;8.38;;
17997;SDS011;9124;48.144;17.098;2023-11-19T04:15:15;10.35;;;8.73;;
17997;SDS011;9124;48.144;17.098;2023-11-19T04:19:42;13.50;;;8.63;;
17997;SDS011;9124;48.144;17.098;2023-11-19T04:24:09;11.60;;;9.35;;
17997;SDS011;9124;48.144;17.098;2023-11-19T04:28:39;11.57;;;10.38;;
17997;SDS011;9124;48.144;17.098;2023-11-19T04:33:06;13.68;;;10.32;;
17997;SDS011;9124;48.144;17.098;2023-11-19T04:37:32;10.90;;;9.80;;
17997;SDS011;9124;48.144;17.098;2023-11-19T04:41:59;14.82;;;10.40;;
17997;SDS011;9124;48.144;17.098;2023-11-19T04:46:25;14.10;;;11.38;;
17997;SDS011;9124;48.144;17.098;2023-11-19T04:50:52;17.92;;;12.00;;
17997;SDS011;9124;48.144;17.098;2023-11-19T04:55:18;18.00;;;12.13;;
17997;SDS011;9124;48.144;17.098;2023-11-19T04:59:44;12.85;;;10.52;;
17997;SDS011;9124;48.144;17.098;2023-11-19T05:04:11;12.82;;;10.07;;
17997;SDS011;9124;48.144;17.098;2023-11-19T05:08:37;14.35;;;10.80;;
17997;SDS011;9124;48.144;17.098;2023-11-19T05:13:03;12.18;;;8.93;;
17997;SDS011;9124;48.144;17.098;2023-11-19T05:17:30;10.27;;;9.05;;
17997;SDS011;9124;48.144;17.098;2023-11-19T05:21:57;11.23;;;10.05;;
17997;SDS011;9124;48.144;17.098;2023-11-19T05:26:23;12.48;;;10.63;;
17997;SDS011;9124;48.144;17.098;2023-11-19T05:30:50;11.43;;;10.23;;
17997;SDS011;9124;48.144;17.098;2023-11-19T05:35:16;14.10;;;10.60;;
17997;SDS011;9124;48.144;17.098;2023-11-19T05:39:42;16.13;;;11.48;;
17997;SDS011;9124;48.144;17.098;2023-11-19T05:44:10;14.45;;;10.18;;
17997;SDS011;9124;48.144;17.098;2023-11-19T05:48:36;16.35;;;12.75;;
17997;SDS011;9124;48.144;17.098;2023-11-19T05:53:04;13.48;;;12.00;;
17997;SDS011;9124;48.144;17.098;2023-11-19T05:57:36;13.88;;;10.93;;
17997;SDS011;9124;48.144;17.098;2023-11-19T06:02:04;16.30;;;9.45;;
17997;SDS011;9124;48.144;17.098;2023-11-19T06:06:30;13.25;;;10.23;;
17997;SDS011;9124;48.144;17.098;2023-11-19T06:10:57;12.43;;;11.07;;
17997;SDS011;9124;48.144;17.098;2023-11-19T06:15:23;11.35;;;9.52;;
17997;SDS011;9124;48.144;17.098;2023-11-19T06:19:50;16.33;;;11.50;;
17997;SDS011;9124;48.144;17.098;2023-11-19T06:24:17;12.85;;;10.65;;
17997;SDS011;9124;48.144;17.098;2023-11-19T06:28:43;13.25;;;11.02;;
17997;SDS011;9124;48.144;17.098;2023-11-19T06:33:13;13.48;;;12.05;;
17997;SDS011;9124;48.144;17.098;2023-11-19T06:37:40;14.32;;;11.88;;
17997;SDS011;9124;48.144;17.098;2023-11-19T06:42:07;13.95;;;11.07;;
17997;SDS011;9124;48.144;17.098;2023-11-19T06:46:33;13.55;;;11.75;;
17997;SDS011;9124;48.144;17.098;2023-11-19T06:51:00;15.10;;;12.38;;
17997;SDS011;9124;48.144;17.098;2023-11-19T06:55:26;22.50;;;11.77;;
17997;SDS011;9124;48.144;17.098;2023-11-19T06:59:53;15.48;;;11.93;;
17997;SDS011;9124;48.144;17.098;2023-11-19T07:04:19;21.40;;;14.70;;
17997;SDS011;9124;48.144;17.098;2023-11-19T07:08:46;25.17;;;16.30;;
17997;SDS011;9124;48.144;17.098;2023-11-19T07:13:12;28.25;;;17.85;;
17997;SDS011;9124;48.144;17.098;2023-11-19T07:17:39;27.20;;;17.30;;
17997;SDS011;9124;48.144;17.098;2023-11-19T07:22:06;22.55;;;15.90;;
17997;SDS011;9124;48.144;17.098;2023-11-19T07:26:33;24.65;;;17.45;;
17997;SDS011;9124;48.144;17.098;2023-11-19T07:30:59;21.08;;;16.17;;
17997;SDS011;9124;48.144;17.098;2023-11-19T07:35:25;26.67;;;17.88;;
17997;SDS011;9124;48.144;17.098;2023-11-19T07:39:51;26.77;;;17.05;;
17997;SDS011;9124;48.144;17.098;2023-11-19T07:44:19;29.95;;;16.67;;
17997;SDS011;9124;48.144;17.098;2023-11-19T07:48:46;27.95;;;16.05;;
17997;SDS011;9124;48.144;17.098;2023-11-19T07:53:13;11.98;;;10.75;;
17997;SDS011;9124;48.144;17.098;2023-11-19T07:57:39;11.38;;;9.00;;
17997;SDS011;9124;48.144;17.098;2023-11-19T08:02:06;6.32;;;5.72;;
17997;SDS011;9124;48.144;17.098;2023-11-19T08:06:32;9.15;;;8.25;;
17997;SDS011;9124;48.144;17.098;2023-11-19T08:10:59;8.30;;;7.65;;
17997;SDS011;9124;48.144;17.098;2023-11-19T08:15:25;9.70;;;7.20;;
17997;SDS011;9124;48.144;17.098;2023-11-19T08:19:52;9.43;;;8.40;;
17997;SDS011;9124;48.144;17.098;2023-11-19T08:24:19;9.95;;;9.00;;
17997;SDS011;9124;48.144;17.098;2023-11-19T08:28:45;8.77;;;8.07;;
17997;SDS011;9124;48.144;17.098;2023-11-19T08:33:12;8.45;;;7.57;;
17997;SDS011;9124;48.144;17.098;2023-11-19T08:37:38;9.15;;;8.43;;
17997;SDS011;9124;48.144;17.098;2023-11-19T08:42:05;10.00;;;9.23;;
17997;SDS011;9124;48.144;17.098;2023-11-19T08:46:31;9.75;;;9.05;;
17997;SDS011;9124;48.144;17.098;2023-11-19T08:50:57;8.68;;;8.07;;
17997;SDS011;9124;48.144;17.098;2023-11-19T08:55:24;10.10;;;9.30;;
17997;SDS011;9124;48.144;17.098;2023-11-19T08:59:52;10.07;;;9.38;;
17997;SDS011;9124;48.144;17.098;2023-11-19T09:04:18;8.80;;;8.20;;
17997;SDS011;9124;48.144;17.098;2023-11-19T09:08:48;8.27;;;7.55;;
17997;SDS011;9124;48.144;17.098;2023-11-19T09:13:14;10.02;;;9.35;;
17997;SDS011;9124;48.144;17.098;2023-11-19T09:17:41;9.68;;;8.75;;
17997;SDS011;9124;48.144;17.098;2023-11-19T09:22:07;9.48;;;8.77;;
17997;SDS011;9124;48.144;17.098;2023-11-19T09:26:34;10.25;;;9.57;;
17997;SDS011;9124;48.144;17.098;2023-11-19T09:31:01;8.90;;;8.20;;
17997;SDS011;9124;48.144;17.098;2023-11-19T09:35:30;9.63;;;9.02;;
17997;SDS011;9124;48.144;17.098;2023-11-19T09:39:57;9.93;;;8.95;;
17997;SDS011;9124;48.144;17.098;2023-11-19T09:44:23;9.65;;;8.85;;
17997;SDS011;9124;48.144;17.098;2023-11-19T09:48:51;9.55;;;8.85;;
17997;SDS011;9124;48.144;17.098;2023-11-19T09:53:21;8.98;;;8.32;;
17997;SDS011;9124;48.144;17.098;2023-11-19T09:57:47;10.25;;;9.43;;
17997;SDS011;9124;48.144;17.098;2023-11-19T10:02:17;9.70;;;9.10;;
17997;SDS011;9124;48.144;17.098;2023-11-19T10:06:44;9.40;;;8.80;;
17997;SDS011;9124;48.144;17.098;2023-11-19T10:11:11;9.85;;;9.25;;
17997;SDS011;9124;48.144;17.098;2023-11-19T10:15:38;9.50;;;8.73;;
17997;SDS011;9124;48.144;17.098;2023-11-19T10:20:05;9.75;;;9.00;;
17997;SDS011;9124;48.144;17.098;2023-11-19T10:24:33;9.68;;;8.88;;
17997;SDS011;9124;48.144;17.098;2023-11-19T10:29:00;10.20;;;9.18;;
17997;SDS011;9124;48.144;17.098;2023-11-19T10:33:27;9.95;;;9.05;;
17997;SDS011;9124;48.144;17.098;2023-11-19T10:37:58;9.90;;;9.00;;
17997;SDS011;9124;48.144;17.098;2023-11-19T10:42:44;11.05;;;10.18;;
17997;SDS011;9124;48.144;17.098;2023-11-19T10:47:12;12.18;;;10.95;;
17997;SDS011;9124;48.144;17.098;2023-11-19T10:51:45;9.82;;;9.15;;
17997;SDS011;9124;48.144;17.098;2023-11-19T10:56:12;10.85;;;9.95;;
17997;SDS011;9124;48.144;17.098;2023-11-19T11:05:21;11.23;;;10.43;;
17997;SDS011;9124;48.144;17.098;2023-11-19T11:09:48;12.85;;;10.40;;
17997;SDS011;9124;48.144;17.098;2023-11-19T11:14:15;10.68;;;9.73;;
17997;SDS011;9124;48.144;17.098;2023-11-19T11:18:43;10.90;;;9.85;;
17997;SDS011;9124;48.144;17.098;2023-11-19T11:37:46;11.15;;;10.20;;
17997;SDS011;9124;48.144;17.098;2023-11-19T11:46:55;11.73;;;10.57;;
17997;SDS011;9124;48.144;17.098;2023-11-19T11:51:43;10.88;;;10.02;;
17997;SDS011;9124;48.144;17.098;2023-11-19T11:56:10;12.52;;;11.43;;
17997;SDS011;9124;48.144;17.098;2023-11-19T12:00:37;11.88;;;10.60;;
17997;SDS011;9124;48.144;17.098;2023-11-19T12:05:06;11.70;;;10.70;;
17997;SDS011;9124;48.144;17.098;2023-11-19T12:09:33;11.57;;;10.57;;
17997;SDS011;9124;48.144;17.098;2023-11-19T12:14:00;11.77;;;10.88;;
17997;SDS011;9124;48.144;17.098;2023-11-19T12:18:28;12.13;;;11.13;;
17997;SDS011;9124;48.144;17.098;2023-11-19T12:22:57;11.55;;;10.73;;
17997;SDS011;9124;48.144;17.098;2023-11-19T12:27:33;12.68;;;11.68;;
17997;SDS011;9124;48.144;17.098;2023-11-19T12:31:59;11.48;;;10.68;;
17997;SDS011;9124;48.144;17.098;2023-11-19T12:36:28;12.38;;;11.27;;
17997;SDS011;9124;48.144;17.098;2023-11-19T12:41:04;12.27;;;11.18;;
17997;SDS011;9124;48.144;17.098;2023-11-19T12:45:39;11.90;;;11.00;;
17997;SDS011;9124;48.144;17.098;2023-11-19T12:50:05;13.75;;;12.68;;
17997;SDS011;9124;48.144;17.098;2023-11-19T12:54:33;13.20;;;12.10;;
17997;SDS011;9124;48.144;17.098;2023-11-19T12:59:09;12.38;;;11.40;;
17997;SDS011;9124;48.144;17.098;2023-11-19T13:03:40;12.20;;;11.25;;
17997;SDS011;9124;48.144;17.098;2023-11-19T13:08:07;12.00;;;11.10;;
17997;SDS011;9124;48.144;17.098;2023-11-19T13:12:38;14.10;;;12.18;;
17997;SDS011;9124;48.144;17.098;2023-11-19T13:17:04;14.20;;;13.05;;
17997;SDS011;9124;48.144;17.098;2023-11-19T13:21:32;11.90;;;11.05;;
17997;SDS011;9124;48.144;17.098;2023-11-19T13:25:58;13.35;;;12.00;;
17997;SDS011;9124;48.144;17.098;2023-11-19T13:30:24;13.55;;;12.35;;
17997;SDS011;9124;48.144;17.098;2023-11-19T13:34:51;13.07;;;12.07;;
17997;SDS011;9124;48.144;17.098;2023-11-19T13:39:18;13.70;;;12.60;;
17997;SDS011;9124;48.144;17.098;2023-11-19T13:43:50;13.98;;;12.75;;
17997;SDS011;9124;48.144;17.098;2023-11-19T13:48:16;15.38;;;12.55;;
17997;SDS011;9124;48.144;17.098;2023-11-19T13:52:44;14.20;;;12.93;;
17997;SDS011;9124;48.144;17.098;2023-11-19T13:57:13;16.13;;;14.43;;
17997;SDS011;9124;48.144;17.098;2023-11-19T14:01:39;14.68;;;13.18;;
17997;SDS011;9124;48.144;17.098;2023-11-19T14:06:06;16.50;;;14.80;;
17997;SDS011;9124;48.144;17.098;2023-11-19T14:10:34;15.32;;;13.82;;
17997;SDS011;9124;48.144;17.098;2023-11-19T14:15:01;15.40;;;14.10;;
17997;SDS011;9124;48.144;17.098;2023-11-19T14:19:28;15.75;;;14.35;;
17997;SDS011;9124;48.144;17.098;2023-11-19T14:23:55;16.35;;;14.82;;
17997;SDS011;9124;48.144;17.098;2023-11-19T14:28:21;19.15;;;17.27;;
17997;SDS011;9124;48.144;17.098;2023-11-19T14:32:48;25.27;;;20.08;;
17997;SDS011;9124;48.144;17.098;2023-11-19T14:37:15;23.20;;;19.20;;
17997;SDS011;9124;48.144;17.098;2023-11-19T14:41:42;22.33;;;19.92;;
17997;SDS011;9124;48.144;17.098;2023-11-19T14:46:10;25.65;;;22.13;;
17997;SDS011;9124;48.144;17.098;2023-11-19T14:50:36;26.98;;;22.58;;
17997;SDS011;9124;48.144;17.098;2023-11-19T14:55:02;25.42;;;22.02;;
17997;SDS011;9124;48.144;17.098;2023-11-19T14:59:29;29.73;;;23.13;;
17997;SDS011;9124;48.144;17.098;2023-11-19T15:03:56;28.38;;;23.58;;
17997;SDS011;9124;48.144;17.098;2023-11-19T15:08:22;27.30;;;23.38;;
17997;SDS011;9124;48.144;17.098;2023-11-19T15:12:48;28.85;;;20.58;;
17997;SDS011;9124;48.144;17.098;2023-11-19T15:17:15;27.95;;;22.67;;
17997;SDS011;9124;48.144;17.098;2023-11-19T15:21:41;31.55;;;23.27;;
17997;SDS011;9124;48.144;17.098;2023-11-19T15:26:08;27.10;;;23.33;;
17997;SDS011;9124;48.144;17.098;2023-11-19T15:30:35;27.27;;;24.10;;
17997;SDS011;9124;48.144;17.098;2023-11-19T15:35:02;23.23;;;20.83;;
17997;SDS011;9124;48.144;17.098;2023-11-19T15:39:28;27.67;;;23.58;;
17997;SDS011;9124;48.144;17.098;2023-11-19T15:43:55;28.13;;;23.92;;
17997;SDS011;9124;48.144;17.098;2023-11-19T15:48:21;29.20;;;23.08;;
17997;SDS011;9124;48.144;17.098;2023-11-19T15:52:48;27.52;;;23.70;;
17997;SDS011;9124;48.144;17.098;2023-11-19T15:57:14;31.20;;;22.92;;
17997;SDS011;9124;48.144;17.098;2023-11-19T16:01:40;28.65;;;22.42;;
17997;SDS011;9124;48.144;17.098;2023-11-19T16:06:07;29.20;;;22.98;;
17997;SDS011;9124;48.144;17.098;2023-11-19T16:10:36;31.00;;;24.42;;
17997;SDS011;9124;48.144;17.098;2023-11-19T16:15:08;31.13;;;25.33;;
17997;SDS011;9124;48.144;17.098;2023-11-19T16:19:35;36.97;;;27.17;;
17997;SDS011;9124;48.144;17.098;2023-11-19T16:24:02;40.00;;;28.27;;
17997;SDS011;9124;48.144;17.098;2023-11-19T16:28:30;43.10;;;28.90;;
17997;SDS011;9124;48.144;17.098;2023-11-19T16:32:57;37.30;;;27.95;;
17997;SDS011;9124;48.144;17.098;2023-11-19T16:37:27;44.03;;;28.83;;
17997;SDS011;9124;48.144;17.098;2023-11-19T16:41:53;44.15;;;28.95;;
17997;SDS011;9124;48.144;17.098;2023-11-19T16:46:19;45.53;;;30.65;;
17997;SDS011;9124;48.144;17.098;2023-11-19T16:50:46;48.83;;;31.40;;
17997;SDS011;9124;48.144;17.098;2023-11-19T16:55:14;62.47;;;36.40;;
17997;SDS011;9124;48.144;17.098;2023-11-19T16:59:41;55.67;;;36.40;;
17997;SDS011;9124;48.144;17.098;2023-11-19T17:04:07;63.92;;;39.38;;
17997;SDS011;9124;48.144;17.098;2023-11-19T17:08:34;62.38;;;38.30;;
17997;SDS011;9124;48.144;17.098;2023-11-19T17:13:03;68.25;;;39.40;;
17997;SDS011;9124;48.144;17.098;2023-11-19T17:17:32;64.82;;;38.38;;
17997;SDS011;9124;48.144;17.098;2023-11-19T17:22:01;54.08;;;35.80;;
17997;SDS011;9124;48.144;17.098;2023-11-19T17:26:28;61.55;;;39.13;;
17997;SDS011;9124;48.144;17.098;2023-11-19T17:30:55;54.00;;;34.42;;
17997;SDS011;9124;48.144;17.098;2023-11-19T17:35:21;57.35;;;36.88;;
17997;SDS011;9124;48.144;17.098;2023-11-19T17:39:48;49.50;;;33.88;;
17997;SDS011;9124;48.144;17.098;2023-11-19T17:44:14;46.60;;;32.92;;
17997;SDS011;9124;48.144;17.098;2023-11-19T17:48:40;42.53;;;30.98;;
17997;SDS011;9124;48.144;17.098;2023-11-19T17:53:08;44.10;;;31.90;;
17997;SDS011;9124;48.144;17.098;2023-11-19T17:57:35;46.70;;;31.08;;
17997;SDS011;9124;48.144;17.098;2023-11-19T18:02:01;43.55;;;31.92;;
17997;SDS011;9124;48.144;17.098;2023-11-19T18:06:27;51.67;;;33.67;;
17997;SDS011;9124;48.144;17.098;2023-11-19T18:10:54;59.50;;;37.17;;
17997;SDS011;9124;48.144;17.098;2023-11-19T18:15:20;94.45;;;52.28;;
17997;SDS011;9124;48.144;17.098;2023-11-19T18:19:47;100.07;;;56.03;;
17997;SDS011;9124;48.144;17.098;2023-11-19T18:24:13;103.95;;;52.17;;
17997;SDS011;9124;48.144;17.098;2023-11-19T18:28:41;93.78;;;49.13;;
17997;SDS011;9124;48.144;17.098;2023-11-19T18:33:07;84.20;;;44.85;;
17997;SDS011;9124;48.144;17.098;2023-11-19T18:37:34;73.63;;;40.17;;
17997;SDS011;9124;48.144;17.098;2023-11-19T18:42:00;66.18;;;39.50;;
17997;SDS011;9124;48.144;17.098;2023-11-19T18:46:27;65.85;;;38.78;;
17997;SDS011;9124;48.144;17.098;2023-11-19T18:50:53;72.13;;;39.63;;
17997;SDS011;9124;48.144;17.098;2023-11-19T18:55:20;73.45;;;40.50;;
17997;SDS011;9124;48.144;17.098;2023-11-19T18:59:46;67.05;;;38.40;;
17997;SDS011;9124;48.144;17.098;2023-11-19T19:04:13;74.22;;;42.38;;
17997;SDS011;9124;48.144;17.098;2023-11-19T19:08:40;76.20;;;43.72;;
17997;SDS011;9124;48.144;17.098;2023-11-19T19:13:08;76.57;;;41.03;;
17997;SDS011;9124;48.144;17.098;2023-11-19T19:17:34;74.22;;;39.35;;
17997;SDS011;9124;48.144;17.098;2023-11-19T19:22:01;77.68;;;43.35;;
17997;SDS011;9124;48.144;17.098;2023-11-19T19:26:28;84.47;;;43.55;;
17997;SDS011;9124;48.144;17.098;2023-11-19T19:30:55;83.50;;;41.22;;
17997;SDS011;9124;48.144;17.098;2023-11-19T19:35:23;90.68;;;42.50;;
17997;SDS011;9124;48.144;17.098;2023-11-19T19:39:55;90.43;;;43.33;;
17997;SDS011;9124;48.144;17.098;2023-11-19T19:44:21;108.18;;;48.08;;
17997;SDS011;9124;48.144;17.098;2023-11-19T19:48:47;166.15;;;56.63;;
17997;SDS011;9124;48.144;17.098;2023-11-19T19:53:14;160.23;;;58.55;;
17997;SDS011;9124;48.144;17.098;2023-11-19T19:57:40;139.63;;;53.63;;
17997;SDS011;9124;48.144;17.098;2023-11-19T20:02:07;116.72;;;48.72;;
17997;SDS011;9124;48.144;17.098;2023-11-19T20:06:37;86.60;;;43.15;;
17997;SDS011;9124;48.144;17.098;2023-11-19T20:11:04;85.20;;;43.03;;
17997;SDS011;9124;48.144;17.098;2023-11-19T20:15:34;77.68;;;41.20;;
17997;SDS011;9124;48.144;17.098;2023-11-19T20:20:03;76.88;;;39.08;;
17997;SDS011;9124;48.144;17.098;2023-11-19T20:24:31;73.32;;;38.75;;
17997;SDS011;9124;48.144;17.098;2023-11-19T20:28:58;65.25;;;36.30;;
17997;SDS011;9124;48.144;17.098;2023-11-19T20:33:24;80.47;;;38.67;;
17997;SDS011;9124;48.144;17.098;2023-11-19T20:37:51;83.75;;;41.58;;
17997;SDS011;9124;48.144;17.098;2023-11-19T20:42:17;82.00;;;41.08;;
17997;SDS011;9124;48.144;17.098;2023-11-19T20:46:43;95.88;;;42.85;;
17997;SDS011;9124;48.144;17.098;2023-11-19T20:51:11;85.50;;;42.25;;
17997;SDS011;9124;48.144;17.098;2023-11-19T20:55:38;94.25;;;42.95;;
17997;SDS011;9124;48.144;17.098;2023-11-19T21:00:05;72.10;;;38.28;;
17997;SDS011;9124;48.144;17.098;2023-11-19T21:04:32;70.35;;;38.30;;
17997;SDS011;9124;48.144;17.098;2023-11-19T21:08:58;75.05;;;38.53;;
17997;SDS011;9124;48.144;17.098;2023-11-19T21:13:25;76.72;;;38.50;;
17997;SDS011;9124;48.144;17.098;2023-11-19T21:17:51;82.38;;;39.45;;
17997;SDS011;9124;48.144;17.098;2023-11-19T21:22:18;72.60;;;39.15;;
17997;SDS011;9124;48.144;17.098;2023-11-19T21:26:46;69.93;;;38.38;;
17997;SDS011;9124;48.144;17.098;2023-11-19T21:31:12;65.13;;;38.03;;
17997;SDS011;9124;48.144;17.098;2023-11-19T21:35:43;64.82;;;37.67;;
17997;SDS011;9124;48.144;17.098;2023-11-19T21:40:10;82.82;;;46.63;;
17997;SDS011;9124;48.144;17.098;2023-11-19T21:44:37;60.90;;;39.55;;
17997;SDS011;9124;48.144;17.098;2023-11-19T21:49:03;75.53;;;42.63;;
17997;SDS011;9124;48.144;17.098;2023-11-19T21:53:30;61.50;;;38.47;;
17997;SDS011;9124;48.144;17.098;2023-11-19T21:57:56;58.08;;;38.03;;
17997;SDS011;9124;48.144;17.098;2023-11-19T22:02:23;70.72;;;39.00;;
17997;SDS011;9124;48.144;17.098;2023-11-19T22:06:51;91.85;;;45.20;;
17997;SDS011;9124;48.144;17.098;2023-11-19T22:11:19;88.22;;;44.13;;
17997;SDS011;9124;48.144;17.098;2023-11-19T22:15:45;101.10;;;46.47;;
17997;SDS011;9124;48.144;17.098;2023-11-19T22:20:11;87.78;;;44.78;;
17997;SDS011;9124;48.144;17.098;2023-11-19T22:24:38;91.45;;;45.05;;
17997;SDS011;9124;48.144;17.098;2023-11-19T22:29:04;89.53;;;46.50;;
17997;SDS011;9124;48.144;17.098;2023-11-19T22:33:31;97.53;;;47.45;;
17997;SDS011;9124;48.144;17.098;2023-11-19T22:37:57;100.80;;;47.40;;
17997;SDS011;9124;48.144;17.098;2023-11-19T22:42:24;91.03;;;46.63;;
17997;SDS011;9124;48.144;17.098;2023-11-19T22:46:50;104.45;;;49.70;;
17997;SDS011;9124;48.144;17.098;2023-11-19T22:51:16;82.30;;;43.63;;
17997;SDS011;9124;48.144;17.098;2023-11-19T22:55:42;80.18;;;44.03;;
17997;SDS011;9124;48.144;17.098;2023-11-19T23:00:09;82.22;;;43.75;;
17997;SDS011;9124;48.144;17.098;2023-11-19T23:05:04;78.75;;;41.70;;
17997;SDS011;9124;48.144;17.098;2023-11-19T23:09:33;55.90;;;34.25;;
17997;SDS011;9124;48.144;17.098;2023-11-19T23:13:59;67.57;;;37.47;;
17997;SDS011;9124;48.144;17.098;2023-11-19T23:18:26;61.78;;;37.08;;
17997;SDS011;9124;48.144;17.098;2023-11-19T23:22:53;66.53;;;39.33;;
17997;SDS011;9124;48.144;17.098;2023-11-19T23:27:20;68.10;;;40.03;;
17997;SDS011;9124;48.144;17.098;2023-11-19T23:31:46;93.85;;;43.22;;
17997;SDS011;9124;48.144;17.098;2023-11-19T23:36:12;74.07;;;40.95;;
17997;SDS011;9124;48.144;17.098;2023-11-19T23:40:38;77.88;;;41.05;;
17997;SDS011;9124;48.144;17.098;2023-11-19T23:45:05;72.53;;;39.25;;
17997;SDS011;9124;48.144;17.098;2023-11-19T23:49:31;74.32;;;39.88;;
17997;SDS011;9124;48.144;17.098;2023-11-19T23:53:58;76.00;;;40.08;;
17997;SDS011;9124;48.144;17.098;2023-11-19T23:58:24;91.97;;;42.70;;
